X  Close Metar Aviation Weather Data     CYYC Calgary International Airport
Temperature
14°C Temperature
-8°C Dewpoint
21% Humidity



Wind
21 KM/H
13 MPH
6 M/S
11 KTS



30°
NNE
Current Conditions

Mostly Scattered Clouds Mostly Scattered Clouds
Pressure 1018.92 (hPa) - 30.09 (inHg)
Visibility 40 (mile) - 64.4 (km)
Airport
Airport-code CYYC

Location: Calgary International Airport
Distance: 4 (km)

Metar:
CYYC 221900Z 03011G20KT 40SM SCT080 SCT300 14/M08 A3009 RMK AC3CI1 CI TR SLP215 DENSITY ALT 4200FT

Time: 22-05-2022 13:00 MDT